Time;durP1;ratioP1;P1;durP2;ratioP2;P2;SDS_P1;SDS_P2;PMS_P1;PMS_P2;Temp;Humidity;BMP_temperature;BMP_pressure;BME280_temperature;BME280_humidity;BME280_pressure;Samples;Min_cycle;Max_cycle;Signal;HPM_P1;HPM_P2
2024/01/14 00:00:09;;;;;;;26.80;24.10;;;;;;;-2.40;100.00;96974.55;106751;1276;25434;-77
2024/01/14 00:02:38;;;;;;;27.20;24.50;;;;;;;-2.39;100.00;96971.21;106850;1276;22570;-76
2024/01/14 00:05:08;;;;;;;27.40;24.90;;;;;;;-2.39;100.00;96969.54;106771;1276;25752;-76
2024/01/14 00:07:36;;;;;;;25.80;23.30;;;;;;;-2.39;100.00;96970.44;106907;1276;25320;-75
2024/01/14 00:10:05;;;;;;;26.00;22.50;;;;;;;-2.41;100.00;96967.08;106784;1276;24388;-76
2024/01/14 00:12:33;;;;;;;24.50;21.90;;;;;;;-2.41;100.00;96960.38;106798;1276;22539;-76
2024/01/14 00:15:02;;;;;;;22.60;20.30;;;;;;;-2.37;100.00;96963.71;106801;1276;22561;-76
2024/01/14 00:17:31;;;;;;;21.70;19.60;;;;;;;-2.39;100.00;96959.73;106866;1276;24046;-76
2024/01/14 00:20:02;;;;;;;19.60;17.60;;;;;;;-2.40;100.00;96960.08;106809;1276;22530;-76
2024/01/14 00:22:31;;;;;;;17.60;16.00;;;;;;;-2.41;100.00;96955.20;106776;1276;22553;-76
2024/01/14 00:24:59;;;;;;;18.20;16.50;;;;;;;-2.38;100.00;96953.83;106870;1276;25230;-76
2024/01/14 00:27:26;;;;;;;21.70;19.70;;;;;;;-2.36;100.00;96951.42;106835;1276;25426;-76
2024/01/14 00:29:57;;;;;;;19.40;17.50;;;;;;;-2.36;100.00;96945.95;106890;1276;24349;-76
2024/01/14 00:32:26;;;;;;;19.60;17.60;;;;;;;-2.34;100.00;96943.92;106801;1276;22544;-76
2024/01/14 00:34:54;;;;;;;21.70;19.60;;;;;;;-2.30;100.00;96940.52;106735;1276;22536;-75
2024/01/14 00:37:23;;;;;;;20.60;18.60;;;;;;;-2.26;100.00;96933.58;106907;1276;25157;-76
2024/01/14 00:39:51;;;;;;;20.70;18.70;;;;;;;-2.27;100.00;96927.83;106881;1276;24272;-77
2024/01/14 00:42:19;;;;;;;17.60;15.90;;;;;;;-2.25;100.00;96923.80;106771;1276;22660;-76
2024/01/14 00:44:47;;;;;;;20.10;18.30;;;;;;;-2.19;100.00;96924.48;106835;1275;25495;-76
2024/01/14 00:47:15;;;;;;;20.20;18.30;;;;;;;-2.16;100.00;96916.60;106858;1275;22665;-76
2024/01/14 00:49:43;;;;;;;19.40;17.50;;;;;;;-2.18;100.00;96915.25;106900;1275;22542;-77
2024/01/14 00:52:11;;;;;;;18.70;16.90;;;;;;;-2.15;100.00;96906.90;106907;1275;24794;-78
2024/01/14 00:54:39;;;;;;;18.40;16.60;;;;;;;-2.13;100.00;96905.92;107048;1274;24314;-76
2024/01/14 00:57:08;;;;;;;18.00;16.40;;;;;;;-2.10;100.00;96904.14;107023;1275;25229;-77
2024/01/14 00:59:36;;;;;;;19.40;17.70;;;;;;;-2.07;100.00;96900.42;107039;1275;24362;-77
2024/01/14 01:02:04;;;;;;;19.50;17.70;;;;;;;-2.07;100.00;96901.00;106933;1275;22497;-76
2024/01/14 01:04:32;;;;;;;20.10;18.10;;;;;;;-2.06;100.00;96890.84;106876;1275;22650;-76
2024/01/14 01:07:00;;;;;;;19.60;17.70;;;;;;;-2.01;100.00;96893.65;107109;1275;22618;-76
2024/01/14 01:09:28;;;;;;;20.20;18.20;;;;;;;-1.98;100.00;96890.46;107027;1275;24229;-76
2024/01/14 01:11:56;;;;;;;18.90;17.10;;;;;;;-1.99;100.00;96894.94;106990;1275;22799;-76
2024/01/14 01:14:24;;;;;;;17.50;15.90;;;;;;;-1.98;100.00;96894.22;107073;1275;24279;-76
2024/01/14 01:16:51;;;;;;;22.50;20.40;;;;;;;-1.95;100.00;96883.55;106961;1274;23946;-75
2024/01/14 01:19:19;;;;;;;20.30;18.30;;;;;;;-1.92;100.00;96884.75;106933;1275;22564;-75
2024/01/14 01:21:48;;;;;;;18.50;16.80;;;;;;;-1.93;100.00;96877.91;106905;1275;25370;-75
2024/01/14 01:24:15;;;;;;;18.80;17.00;;;;;;;-1.96;99.97;96874.39;106966;1275;25427;-76
2024/01/14 01:26:43;;;;;;;18.20;16.50;;;;;;;-1.96;100.00;96869.02;106933;1275;22636;-76
2024/01/14 01:29:11;;;;;;;19.00;17.30;;;;;;;-1.95;100.00;96864.64;106916;1275;25316;-76
2024/01/14 01:31:39;;;;;;;18.60;16.90;;;;;;;-1.95;99.99;96865.38;106905;1274;22544;-76
2024/01/14 01:34:16;;;;;;;18.50;16.80;;;;;;;-1.96;99.88;96863.15;106889;1275;25427;-76
2024/01/14 01:36:44;;;;;;;17.60;16.00;;;;;;;-1.96;99.91;96856.23;106890;1274;22543;-76
2024/01/14 01:39:14;;;;;;;17.90;16.30;;;;;;;-1.92;99.98;96857.91;106870;1275;22538;-76
2024/01/14 01:41:42;;;;;;;21.20;19.30;;;;;;;-1.91;99.94;96856.30;106981;1275;25497;-76
2024/01/14 01:44:10;;;;;;;19.90;18.00;;;;;;;-1.96;99.94;96849.63;106930;1275;25497;-76
2024/01/14 01:46:38;;;;;;;19.90;18.10;;;;;;;-1.97;99.89;96846.08;106717;1277;25291;-77
2024/01/14 01:49:05;;;;;;;18.10;16.50;;;;;;;-1.95;99.99;96844.88;106774;1277;24208;-76
2024/01/14 01:51:35;;;;;;;17.90;16.40;;;;;;;-1.92;100.00;96841.45;106754;1277;22546;-75
2024/01/14 01:54:03;;;;;;;19.00;17.40;;;;;;;-1.90;100.00;96838.73;106921;1277;24227;-75
2024/01/14 01:56:32;;;;;;;19.60;17.60;;;;;;;-1.91;99.99;96839.94;107821;1277;23148;-75
2024/01/14 01:59:00;;;;;;;19.40;17.40;;;;;;;-1.92;99.83;96833.41;108522;1277;22534;-77
2024/01/14 02:01:28;;;;;;;18.30;16.60;;;;;;;-1.89;100.00;96831.34;106919;1276;22631;-78
2024/01/14 02:03:56;;;;;;;19.80;18.00;;;;;;;-1.88;100.00;96820.58;106877;1276;22528;-76
2024/01/14 02:06:27;;;;;;;18.80;17.20;;;;;;;-1.85;100.00;96818.14;106788;1277;23262;-76
2024/01/14 02:08:56;;;;;;;19.00;17.40;;;;;;;-1.87;99.98;96817.59;106775;1277;24429;-76
2024/01/14 02:11:24;;;;;;;18.30;16.50;;;;;;;-1.89;99.95;96806.36;106709;1277;22802;-76
2024/01/14 02:13:52;;;;;;;18.40;16.90;;;;;;;-1.85;100.00;96808.64;106737;1277;25259;-76
2024/01/14 02:16:20;;;;;;;17.50;16.00;;;;;;;-1.84;100.00;96810.65;106756;1277;25435;-76
2024/01/14 02:18:49;;;;;;;17.70;16.20;;;;;;;-1.86;100.00;96809.41;106833;1277;22655;-75
2024/01/14 02:21:22;;;;;;;18.70;16.90;;;;;;;-1.86;99.95;96805.55;106748;1277;22540;-76
2024/01/14 02:24:15;;;;;;;17.60;16.10;;;;;;;-1.88;99.97;96812.83;106842;1276;22537;-75
2024/01/14 02:26:43;;;;;;;18.10;16.50;;;;;;;-1.86;100.00;96802.87;106657;1277;22548;-76
2024/01/14 02:29:13;;;;;;;18.50;16.80;;;;;;;-1.82;100.00;96802.71;106704;1277;22591;-76
2024/01/14 02:31:41;;;;;;;17.20;15.60;;;;;;;-1.83;99.96;96796.61;106766;1277;24279;-76
2024/01/14 02:34:10;;;;;;;16.20;14.70;;;;;;;-1.86;99.95;96794.58;106703;1277;22791;-75
2024/01/14 02:36:38;;;;;;;17.30;15.80;;;;;;;-1.84;99.97;96781.61;106811;1254;24275;-76
2024/01/14 02:39:06;;;;;;;17.60;16.00;;;;;;;-1.79;100.00;96787.69;106702;1277;22531;-76
2024/01/14 02:41:35;;;;;;;17.70;16.20;;;;;;;-1.80;100.00;96782.39;106781;1277;22543;-77
2024/01/14 02:44:03;;;;;;;18.70;17.00;;;;;;;-1.80;99.89;96778.21;106734;1277;24249;-75
2024/01/14 02:46:31;;;;;;;17.20;15.60;;;;;;;-1.80;99.96;96772.83;106775;1275;22531;-76
2024/01/14 02:48:58;;;;;;;16.80;15.30;;;;;;;-1.77;100.00;96776.40;106937;1275;23001;-77
2024/01/14 02:51:27;;;;;;;19.10;17.60;;;;;;;-1.75;100.00;96768.61;106949;1274;26659;-77
2024/01/14 02:53:55;;;;;;;18.90;17.20;;;;;;;-1.77;100.00;96764.11;107118;1275;22601;-76
2024/01/14 02:56:23;;;;;;;17.40;16.00;;;;;;;-1.80;100.00;96760.80;107085;1275;24232;-76
2024/01/14 02:58:51;;;;;;;15.30;13.90;;;;;;;-1.78;100.00;96754.16;107043;1275;22748;-76
2024/01/14 03:01:19;;;;;;;17.90;16.40;;;;;;;-1.75;100.00;96746.31;107036;1275;24238;-76
2024/01/14 03:03:47;;;;;;;17.60;16.10;;;;;;;-1.76;100.00;96740.35;107001;1275;22531;-77
2024/01/14 03:06:15;;;;;;;16.80;15.40;;;;;;;-1.78;100.00;96743.33;107001;1275;25487;-75
2024/01/14 03:08:44;;;;;;;15.80;14.50;;;;;;;-1.78;99.98;96740.63;106953;1275;24369;-75
2024/01/14 03:11:12;;;;;;;15.60;14.30;;;;;;;-1.76;100.00;96737.76;106931;1272;25425;-76
2024/01/14 03:13:39;;;;;;;16.70;15.30;;;;;;;-1.74;100.00;96733.23;106802;1275;22548;-76
2024/01/14 03:16:07;;;;;;;18.70;17.00;;;;;;;-1.75;100.00;96727.15;106920;1275;22746;-76
2024/01/14 03:18:35;;;;;;;17.40;15.80;;;;;;;-1.76;100.00;96728.73;106964;1275;24364;-76
2024/01/14 03:21:04;;;;;;;16.00;14.50;;;;;;;-1.76;100.00;96712.41;107033;1275;25252;-74
2024/01/14 03:23:31;;;;;;;17.10;15.50;;;;;;;-1.72;100.00;96717.73;106952;1275;22549;-76
2024/01/14 03:25:59;;;;;;;16.70;15.20;;;;;;;-1.71;100.00;96715.78;106911;1275;25489;-75
2024/01/14 03:28:27;;;;;;;17.90;16.30;;;;;;;-1.75;100.00;96714.73;106886;1275;25468;-76
2024/01/14 03:30:55;;;;;;;15.50;14.20;;;;;;;-1.78;100.00;96713.02;106875;1275;25489;-76
2024/01/14 03:33:23;;;;;;;16.90;15.30;;;;;;;-1.77;100.00;96710.88;106919;1275;23429;-76
2024/01/14 03:35:51;;;;;;;17.80;16.20;;;;;;;-1.78;100.00;96717.03;106967;1275;25431;-76
2024/01/14 03:38:20;;;;;;;18.50;16.50;;;;;;;-1.79;100.00;96715.38;106876;1275;24268;-76
2024/01/14 03:40:48;;;;;;;16.00;14.60;;;;;;;-1.83;100.00;96708.12;106922;1275;24306;-76
2024/01/14 03:43:15;;;;;;;17.10;15.50;;;;;;;-1.79;100.00;96709.36;106923;1274;24316;-76
2024/01/14 03:45:43;;;;;;;17.70;16.20;;;;;;;-1.79;100.00;96701.12;106782;1268;24212;-76
2024/01/14 03:48:11;;;;;;;18.00;16.30;;;;;;;-1.81;100.00;96704.54;106757;1276;22558;-76
2024/01/14 03:50:40;;;;;;;18.20;16.60;;;;;;;-1.83;100.00;96709.64;106793;1276;22549;-76
2024/01/14 03:53:07;;;;;;;16.20;14.80;;;;;;;-1.82;100.00;96710.02;106858;1276;25981;-77
2024/01/14 03:55:35;;;;;;;16.90;15.40;;;;;;;-1.80;100.00;96703.17;106974;1276;24226;-75
2024/01/14 03:58:04;;;;;;;18.00;16.20;;;;;;;-1.79;100.00;96708.23;106830;1276;25273;-76
2024/01/14 04:00:31;;;;;;;16.70;15.30;;;;;;;-1.81;100.00;96702.52;106963;1276;22536;-76
2024/01/14 04:03:00;;;;;;;18.00;16.30;;;;;;;-1.83;100.00;96705.00;106891;1276;25426;-77
2024/01/14 04:05:28;;;;;;;16.90;15.30;;;;;;;-1.80;100.00;96711.88;106880;1276;22527;-77
2024/01/14 04:07:56;;;;;;;18.30;16.60;;;;;;;-1.80;100.00;96699.31;106800;1276;22534;-77
2024/01/14 04:10:24;;;;;;;19.00;17.30;;;;;;;-1.82;100.00;96693.48;106777;1276;24248;-76
2024/01/14 04:12:51;;;;;;;19.30;17.70;;;;;;;-1.84;100.00;96686.88;106750;1276;23265;-76
2024/01/14 04:15:21;;;;;;;16.60;15.20;;;;;;;-1.82;100.00;96677.80;106845;1276;23923;-77
2024/01/14 04:17:49;;;;;;;17.90;16.30;;;;;;;-1.79;100.00;96680.58;106862;1253;25586;-77
2024/01/14 04:20:18;;;;;;;18.40;16.90;;;;;;;-1.78;100.00;96677.90;106839;1276;22540;-75
2024/01/14 04:22:46;;;;;;;18.00;16.20;;;;;;;-1.77;100.00;96677.70;106770;1276;24077;-76
2024/01/14 04:25:14;;;;;;;16.40;15.00;;;;;;;-1.77;100.00;96676.95;106808;1276;23886;-77
2024/01/14 04:27:42;;;;;;;16.80;15.30;;;;;;;-1.73;100.00;96670.66;106744;1276;22549;-77
2024/01/14 04:30:10;;;;;;;18.40;16.90;;;;;;;-1.76;100.00;96675.13;106747;1276;24202;-76
2024/01/14 04:32:38;;;;;;;16.90;15.50;;;;;;;-1.79;100.00;96675.66;106844;1276;22552;-76
2024/01/14 04:35:07;;;;;;;15.60;14.30;;;;;;;-1.82;100.00;96666.77;106806;1276;22618;-76
2024/01/14 04:37:35;;;;;;;15.60;14.30;;;;;;;-1.84;100.00;96668.97;106741;1276;22553;-77
2024/01/14 04:40:03;;;;;;;16.90;15.50;;;;;;;-1.88;100.00;96662.70;106779;1276;24288;-77
2024/01/14 04:42:31;;;;;;;18.90;17.20;;;;;;;-1.91;100.00;96659.75;106754;1276;23891;-77
2024/01/14 04:44:59;;;;;;;17.10;15.60;;;;;;;-1.98;100.00;96657.16;106893;1275;22529;-77
2024/01/14 04:47:27;;;;;;;16.30;14.80;;;;;;;-1.98;100.00;96658.90;106948;1262;24203;-76
2024/01/14 04:49:55;;;;;;;15.30;13.90;;;;;;;-1.95;100.00;96646.21;106906;1275;22530;-77
2024/01/14 04:52:23;;;;;;;18.20;16.60;;;;;;;-1.93;100.00;96643.85;106958;1275;25497;-76
2024/01/14 04:54:51;;;;;;;18.80;17.30;;;;;;;-1.93;100.00;96640.48;106882;1274;22552;-76
2024/01/14 04:57:19;;;;;;;17.80;16.30;;;;;;;-1.97;100.00;96643.70;106891;1275;24319;-76
2024/01/14 04:59:47;;;;;;;17.50;16.00;;;;;;;-1.97;100.00;96643.45;106926;1275;25329;-76
2024/01/14 05:02:15;;;;;;;16.30;14.90;;;;;;;-1.94;100.00;96648.76;106915;1275;25236;-76
2024/01/14 05:04:43;;;;;;;16.00;14.60;;;;;;;-1.93;100.00;96649.83;106910;1262;24391;-75
2024/01/14 05:07:11;;;;;;;15.70;14.30;;;;;;;-1.91;100.00;96647.90;106965;1275;22549;-75
2024/01/14 05:09:39;;;;;;;17.60;16.10;;;;;;;-1.93;100.00;96645.02;106911;1275;22589;-77
2024/01/14 05:12:07;;;;;;;16.30;14.80;;;;;;;-1.99;100.00;96646.27;106894;1275;24251;-75
2024/01/14 05:14:35;;;;;;;16.80;15.30;;;;;;;-2.01;100.00;96643.23;106880;1275;22541;-75
2024/01/14 05:17:03;;;;;;;16.20;14.80;;;;;;;-2.02;100.00;96637.70;106901;1275;25501;-75
2024/01/14 05:19:31;;;;;;;16.80;15.30;;;;;;;-2.03;100.00;96641.59;106895;1275;22537;-75
2024/01/14 05:21:59;;;;;;;17.80;16.10;;;;;;;-2.05;100.00;96643.36;106906;1272;22768;-76
2024/01/14 05:24:27;;;;;;;16.40;15.00;;;;;;;-2.05;100.00;96644.09;106874;1275;25690;-76
2024/01/14 05:26:55;;;;;;;16.60;15.00;;;;;;;-2.05;100.00;96642.46;106911;1275;24380;-76
2024/01/14 05:29:23;;;;;;;18.10;16.30;;;;;;;-2.05;100.00;96638.77;106933;1275;25510;-76
2024/01/14 05:31:51;;;;;;;16.60;15.10;;;;;;;-2.06;100.00;96644.15;106908;1275;22534;-76
2024/01/14 05:34:19;;;;;;;16.70;15.20;;;;;;;-2.08;100.00;96638.69;106883;1275;25284;-76
2024/01/14 05:36:47;;;;;;;16.60;15.10;;;;;;;-2.10;100.00;96646.43;106906;1275;23918;-76
2024/01/14 05:39:15;;;;;;;17.90;16.30;;;;;;;-2.13;100.00;96648.98;106967;1275;22649;-76
2024/01/14 05:41:43;;;;;;;16.70;15.30;;;;;;;-2.11;100.00;96656.98;106941;1275;24371;-76
2024/01/14 05:44:11;;;;;;;17.00;15.50;;;;;;;-2.13;100.00;96653.05;106924;1275;22540;-76
2024/01/14 05:46:39;;;;;;;17.40;15.80;;;;;;;-2.12;100.00;96642.71;106907;1275;23770;-76
2024/01/14 05:49:07;;;;;;;15.40;14.10;;;;;;;-2.12;100.00;96644.66;106918;1275;25352;-75
2024/01/14 05:51:35;;;;;;;15.90;14.50;;;;;;;-2.11;100.00;96639.34;106884;1275;23142;-75
2024/01/14 05:54:03;;;;;;;17.20;15.60;;;;;;;-2.10;100.00;96634.55;106965;1275;22592;-75
2024/01/14 05:56:31;;;;;;;17.70;16.00;;;;;;;-2.11;100.00;96631.27;106925;1260;24435;-75
2024/01/14 05:59:00;;;;;;;17.20;15.80;;;;;;;-2.11;100.00;96627.90;106936;1275;24231;-76
2024/01/14 06:01:29;;;;;;;17.40;15.90;;;;;;;-2.09;100.00;96623.02;106968;1275;25587;-75
2024/01/14 06:03:57;;;;;;;18.20;16.60;;;;;;;-2.06;100.00;96619.34;107055;1275;24046;-76
2024/01/14 06:06:25;;;;;;;18.70;17.10;;;;;;;-2.06;100.00;96624.19;108349;1275;22621;-77
2024/01/14 06:08:53;;;;;;;19.50;17.80;;;;;;;-2.05;100.00;96627.20;109632;1275;22535;-75
2024/01/14 06:11:21;;;;;;;17.50;15.90;;;;;;;-2.01;100.00;96632.00;108379;1275;22529;-77
2024/01/14 06:13:49;;;;;;;19.60;17.80;;;;;;;-2.00;100.00;96632.70;108553;1275;24880;-74
2024/01/14 06:16:17;;;;;;;18.60;16.90;;;;;;;-1.97;100.00;96631.25;107025;1275;22533;-75
2024/01/14 06:18:45;;;;;;;16.70;15.20;;;;;;;-1.96;100.00;96630.25;106925;1275;24563;-75
2024/01/14 06:21:13;;;;;;;17.50;15.90;;;;;;;-1.94;100.00;96625.63;106872;1275;25287;-76
2024/01/14 06:23:41;;;;;;;18.20;16.50;;;;;;;-1.94;100.00;96621.62;106895;1272;22569;-77
2024/01/14 06:26:16;;;;;;;19.10;17.50;;;;;;;-1.91;100.00;96618.90;107129;1275;22709;-76
2024/01/14 06:28:44;;;;;;;;;;;;;;;-1.89;100.00;96625.45;107059;1275;22632;-76
2024/01/14 06:31:16;;;;;;;20.30;18.40;;;;;;;-1.93;100.00;96622.73;107085;1275;25252;-77
2024/01/14 06:33:45;;;;;;;19.80;18.00;;;;;;;-1.93;100.00;96619.14;107066;1275;22550;-78
2024/01/14 06:36:13;;;;;;;19.50;17.80;;;;;;;-1.89;100.00;96623.35;106971;1275;22552;-77
2024/01/14 06:38:41;;;;;;;18.70;16.90;;;;;;;-1.89;100.00;96620.08;107027;1275;25183;-76
2024/01/14 06:41:11;;;;;;;20.00;18.20;;;;;;;-1.85;100.00;96620.75;107048;1275;24314;-76
2024/01/14 06:43:39;;;;;;;20.60;18.80;;;;;;;-1.82;100.00;96619.67;107056;1275;24260;-76
2024/01/14 06:46:07;;;;;;;21.00;19.00;;;;;;;-1.81;100.00;96617.14;106942;1276;22534;-76
2024/01/14 06:48:35;;;;;;;20.10;18.40;;;;;;;-1.81;100.00;96626.54;106923;1276;22554;-76
2024/01/14 06:51:03;;;;;;;18.70;17.10;;;;;;;-1.81;100.00;96617.51;106738;1276;23010;-75
2024/01/14 06:53:31;;;;;;;19.00;17.30;;;;;;;-1.79;100.00;96625.86;106749;1276;23102;-76
2024/01/14 06:56:02;;;;;;;19.00;17.20;;;;;;;-1.78;100.00;96614.67;106751;1276;22532;-75
2024/01/14 06:58:30;;;;;;;18.70;17.00;;;;;;;-1.76;100.00;96626.85;106744;1276;22535;-76
2024/01/14 07:00:58;;;;;;;21.90;20.00;;;;;;;-1.72;100.00;96616.53;106796;1276;22530;-77
2024/01/14 07:03:27;;;;;;;22.80;20.70;;;;;;;-1.73;100.00;96613.46;106773;1253;24340;-76
2024/01/14 07:05:55;;;;;;;25.40;22.70;;;;;;;-1.75;100.00;96615.30;106767;1276;22548;-75
2024/01/14 07:08:24;;;;;;;20.40;18.50;;;;;;;-1.73;100.00;96624.81;106767;1276;25394;-76
2024/01/14 07:10:52;;;;;;;19.00;17.30;;;;;;;-1.71;100.00;96631.01;106775;1276;22609;-76
2024/01/14 07:13:20;;;;;;;21.40;19.50;;;;;;;-1.69;100.00;96621.52;106770;1276;22544;-76
2024/01/14 07:15:48;;;;;;;23.70;21.50;;;;;;;-1.69;100.00;96617.02;107095;1276;24221;-76
2024/01/14 07:18:16;;;;;;;22.50;20.50;;;;;;;-1.73;100.00;96617.84;106770;1276;22544;-76
2024/01/14 07:20:44;;;;;;;21.50;19.60;;;;;;;-1.72;100.00;96618.22;106747;1276;25082;-76
2024/01/14 07:23:12;;;;;;;22.00;20.00;;;;;;;-1.74;100.00;96617.40;106815;1276;24401;-76
2024/01/14 07:26:00;;;;;;;23.10;21.20;;;;;;;-1.72;100.00;96611.98;106806;1276;23930;-75
2024/01/14 07:28:30;;;;;;;24.00;21.80;;;;;;;-1.74;100.00;96616.98;106723;1276;25304;-76
2024/01/14 07:30:58;;;;;;;22.10;20.10;;;;;;;-1.77;100.00;96612.58;106788;1276;24372;-76
2024/01/14 07:33:26;;;;;;;21.10;19.30;;;;;;;-1.77;100.00;96610.09;106792;1276;22806;-75
2024/01/14 07:35:55;;;;;;;20.60;18.80;;;;;;;-1.79;100.00;96612.35;106881;1274;22536;-76
2024/01/14 07:38:23;;;;;;;22.00;20.10;;;;;;;-1.77;100.00;96606.97;106903;1276;22530;-76
2024/01/14 07:40:51;;;;;;;21.40;19.50;;;;;;;-1.75;100.00;96609.16;106891;1253;24275;-77
2024/01/14 07:43:19;;;;;;;20.80;18.80;;;;;;;-1.77;100.00;96615.75;106772;1276;23919;-76
2024/01/14 07:45:49;;;;;;;21.50;19.40;;;;;;;-1.79;100.00;96600.14;106903;1275;22531;-75
2024/01/14 07:48:17;;;;;;;21.10;19.20;;;;;;;-1.78;100.00;96602.54;106807;1275;22619;-76
2024/01/14 07:50:46;;;;;;;21.30;19.50;;;;;;;-1.76;100.00;96611.33;106774;1275;22533;-77
2024/01/14 07:53:13;;;;;;;23.00;20.70;;;;;;;-1.78;100.00;96609.66;106927;1275;23404;-76
2024/01/14 07:55:42;;;;;;;20.40;18.40;;;;;;;-1.76;100.00;96601.29;106903;1275;25249;-76
2024/01/14 07:58:11;;;;;;;23.10;21.00;;;;;;;-1.75;100.00;96601.14;106851;1275;22712;-76
2024/01/14 08:00:39;;;;;;;24.40;22.10;;;;;;;-1.73;100.00;96601.27;106912;1275;25249;-76
2024/01/14 08:03:26;;;;;;;21.40;19.30;;;;;;;-1.71;100.00;96605.35;106873;1275;24358;-77
2024/01/14 08:05:54;;;;;;;21.40;19.30;;;;;;;-1.71;100.00;96607.46;106914;1274;22520;-78
2024/01/14 08:08:23;;;;;;;22.90;20.70;;;;;;;-1.66;100.00;96615.52;106989;1275;22677;-76
2024/01/14 08:10:52;;;;;;;21.50;19.50;;;;;;;-1.65;100.00;96615.94;106965;1275;22547;-76
2024/01/14 08:13:21;;;;;;;20.70;18.70;;;;;;;-1.67;100.00;96610.96;106955;1275;22543;-74
2024/01/14 08:15:49;;;;;;;25.70;23.40;;;;;;;-1.63;100.00;96610.80;106955;1275;22762;-77
2024/01/14 08:18:29;;;;;;;22.50;20.30;;;;;;;-1.59;100.00;96620.45;106899;1275;25348;-76
2024/01/14 08:21:00;;;;;;;23.20;20.90;;;;;;;-1.61;100.00;96623.39;106900;1275;22584;-76
2024/01/14 08:23:32;;;;;;;21.40;19.50;;;;;;;-1.62;100.00;96612.60;106824;1275;24509;-77
2024/01/14 08:26:02;;;;;;;20.10;18.10;;;;;;;-1.61;100.00;96618.84;106948;1275;23235;-77
2024/01/14 08:28:35;;;;;;;19.80;17.90;;;;;;;-1.56;100.00;96624.10;106903;1253;24205;-76
2024/01/14 08:31:04;;;;;;;22.10;19.90;;;;;;;-1.54;100.00;96621.64;106927;1275;24221;-76
2024/01/14 08:33:32;;;;;;;21.80;19.80;;;;;;;-1.56;100.00;96627.60;107081;1274;22533;-76
2024/01/14 08:36:01;;;;;;;24.50;22.20;;;;;;;-1.57;100.00;96628.91;107234;1275;24530;-76
2024/01/14 08:38:29;;;;;;;21.10;19.20;;;;;;;-1.56;100.00;96625.96;107101;1272;24373;-75
2024/01/14 08:40:57;;;;;;;21.20;19.10;;;;;;;-1.54;100.00;96632.41;106959;1275;24258;-76
2024/01/14 08:43:25;;;;;;;22.50;20.30;;;;;;;-1.51;100.00;96628.59;106883;1275;24231;-76
2024/01/14 08:45:52;;;;;;;21.40;19.40;;;;;;;-1.48;100.00;96628.66;106841;1276;22632;-76
2024/01/14 08:48:20;;;;;;;25.50;23.10;;;;;;;-1.51;100.00;96634.94;106733;1276;25283;-76
2024/01/14 08:50:49;;;;;;;24.30;22.10;;;;;;;-1.57;100.00;96637.10;106754;1276;25383;-77
2024/01/14 08:53:17;;;;;;;24.00;21.80;;;;;;;-1.61;100.00;96639.82;106796;1276;24338;-76
2024/01/14 08:55:45;;;;;;;22.50;20.30;;;;;;;-1.63;100.00;96632.92;106809;1276;22537;-76
2024/01/14 08:58:12;;;;;;;26.50;24.00;;;;;;;-1.60;100.00;96638.23;106756;1276;22561;-75
2024/01/14 09:00:40;;;;;;;21.70;19.50;;;;;;;-1.57;100.00;96638.99;106757;1276;22758;-75
2024/01/14 09:03:09;;;;;;;21.20;19.10;;;;;;;-1.56;100.00;96642.96;106774;1276;22544;-76
2024/01/14 09:05:37;;;;;;;20.80;18.50;;;;;;;-1.53;100.00;96648.70;106815;1276;25515;-76
2024/01/14 09:08:05;;;;;;;21.30;19.30;;;;;;;-1.52;100.00;96637.67;106790;1276;24323;-76
2024/01/14 09:10:33;;;;;;;21.70;19.50;;;;;;;-1.51;100.00;96640.31;106880;1276;22544;-75
2024/01/14 09:13:01;;;;;;;21.50;19.60;;;;;;;-1.52;100.00;96640.09;106929;1253;24670;-77
2024/01/14 09:15:29;;;;;;;21.20;19.30;;;;;;;-1.51;100.00;96640.27;106937;1276;24534;-76
2024/01/14 09:17:57;;;;;;;21.60;19.40;;;;;;;-1.47;100.00;96640.98;106918;1276;22708;-76
2024/01/14 09:20:26;;;;;;;26.20;23.50;;;;;;;-1.44;100.00;96646.98;106802;1276;24392;-76
2024/01/14 09:22:54;;;;;;;22.80;20.50;;;;;;;-1.42;100.00;96654.76;106806;1276;24382;-76
2024/01/14 09:25:22;;;;;;;23.30;21.10;;;;;;;-1.43;100.00;96653.74;106796;1276;22803;-77
2024/01/14 09:27:50;;;;;;;24.40;22.00;;;;;;;-1.39;100.00;96643.02;106981;1276;25495;-76
2024/01/14 09:30:18;;;;;;;26.10;22.00;;;;;;;-1.34;100.00;96643.88;106881;1276;25420;-76
2024/01/14 09:32:46;;;;;;;22.60;20.60;;;;;;;-1.30;100.00;96637.36;107010;1276;25458;-76
2024/01/14 09:35:14;;;;;;;22.90;20.60;;;;;;;-1.25;100.00;96638.98;106671;1276;22635;-76
2024/01/14 09:37:42;;;;;;;22.10;19.90;;;;;;;-1.23;100.00;96649.41;106859;1276;22536;-76
2024/01/14 09:40:10;;;;;;;23.40;21.00;;;;;;;-1.23;100.00;96638.52;106799;1276;25582;-75
2024/01/14 09:42:40;;;;;;;19.90;18.10;;;;;;;-1.24;100.00;96638.56;106857;1276;22540;-76
2024/01/14 09:45:08;;;;;;;20.50;18.00;;;;;;;-1.23;100.00;96646.92;106763;1275;24212;-75
2024/01/14 09:47:38;;;;;;;20.40;18.40;;;;;;;-1.23;100.00;96652.63;106934;1275;22557;-76
2024/01/14 09:50:08;;;;;;;21.70;19.50;;;;;;;-1.21;100.00;96631.98;107057;1275;22527;-76
2024/01/14 09:52:39;;;;;;;23.50;21.00;;;;;;;-1.20;100.00;96641.66;106960;1275;23792;-77
2024/01/14 09:55:09;;;;;;;23.30;21.00;;;;;;;-1.22;100.00;96634.56;106917;1275;138385;-76
2024/01/14 09:57:40;;;;;;;20.00;18.00;;;;;;;-1.19;100.00;96642.14;107127;1275;22541;-76
2024/01/14 10:00:09;;;;;;;21.90;19.80;;;;;;;-1.18;100.00;96640.20;107186;1275;22547;-77
2024/01/14 10:02:37;;;;;;;23.60;21.40;;;;;;;-1.15;100.00;96635.40;107069;1275;24263;-76
2024/01/14 10:05:07;;;;;;;21.70;19.60;;;;;;;-1.13;100.00;96634.14;106979;1275;22535;-77
2024/01/14 10:07:36;;;;;;;21.60;19.50;;;;;;;-1.11;100.00;96637.96;106973;1275;25574;-75
2024/01/14 10:10:07;;;;;;;20.40;18.40;;;;;;;-1.07;100.00;96628.27;106843;1275;24256;-76
2024/01/14 10:12:36;;;;;;;19.70;17.80;;;;;;;-1.01;100.00;96623.27;106884;1275;22653;-76
2024/01/14 10:15:05;;;;;;;22.40;20.20;;;;;;;-0.95;100.00;96622.98;107008;1275;22639;-76
2024/01/14 10:17:33;;;;;;;23.00;20.60;;;;;;;-0.89;100.00;96622.22;106997;1275;22659;-76
2024/01/14 10:20:02;;;;;;;26.30;23.60;;;;;;;-0.87;100.00;96620.61;107020;1275;25489;-77
2024/01/14 10:22:30;;;;;;;19.20;17.20;;;;;;;-0.82;100.00;96624.33;107121;1275;25316;-77
2024/01/14 10:24:58;;;;;;;24.20;21.00;;;;;;;-0.73;100.00;96621.94;107272;1275;22542;-77
2024/01/14 10:27:26;;;;;;;24.30;21.80;;;;;;;-0.69;100.00;96622.34;107292;1275;25460;-77
2024/01/14 10:30:12;;;;;;;23.70;21.60;;;;;;;-0.66;100.00;96618.64;107644;1275;25300;-77
2024/01/14 10:32:42;;;;;;;25.00;22.50;;;;;;;-0.62;100.00;96618.77;107150;1275;25329;-76
2024/01/14 10:35:30;;;;;;;21.30;19.00;;;;;;;-0.53;100.00;96613.79;107053;1275;22523;-76
2024/01/14 10:38:01;;;;;;;26.10;23.60;;;;;;;-0.45;100.00;96617.93;107002;1275;25430;-76
2024/01/14 10:40:29;;;;;;;25.00;22.40;;;;;;;-0.46;100.00;96610.30;106889;1275;24544;-76
2024/01/14 10:42:57;;;;;;;23.80;21.40;;;;;;;-0.49;100.00;96609.34;106920;1275;22536;-76
2024/01/14 10:45:25;;;;;;;23.50;21.10;;;;;;;-0.47;100.00;96599.45;106813;1276;22558;-76
2024/01/14 10:48:00;;;;;;;21.10;18.90;;;;;;;-0.44;100.00;96604.39;106823;1276;22664;-76
2024/01/14 10:50:30;;;;;;;23.60;21.20;;;;;;;-0.44;100.00;96600.69;106919;1276;22537;-75
2024/01/14 10:53:18;;;;;;;22.40;20.00;;;;;;;-0.48;100.00;96595.77;106893;1276;22557;-75
2024/01/14 10:55:50;;;;;;;26.00;23.50;;;;;;;-0.50;100.00;96593.41;106819;1276;24253;-75
2024/01/14 10:58:29;;;;;;;22.90;20.40;;;;;;;-0.46;100.00;96593.16;106783;1276;25429;-76
2024/01/14 11:00:59;;;;;;;23.30;20.90;;;;;;;-0.47;100.00;96589.92;106961;1276;22530;-76
2024/01/14 11:03:29;;;;;;;20.90;18.90;;;;;;;-0.47;100.00;96586.70;106842;1276;24052;-76
2024/01/14 11:05:58;;;;;;;22.90;20.50;;;;;;;-0.42;100.00;96581.52;106785;1276;25689;-76
2024/01/14 11:08:27;;;;;;;20.90;18.80;;;;;;;-0.29;100.00;96572.24;106817;1276;22538;-74